Industry, Illinois
Current Conditions -  °F | °C
As of 10:35 PM on Saturday 25 Oct 2014 (Local Time) from KMQB Reporting Station
Clear Clear  
Wind Chill: 51°   Ceiling: Unl
Heat Index: 51°   Visibility: 10mi
Dew Point: 40°   Wind: 7mph
Humidity: 65%   Direction: 330°NNW
Pressure: 30.07"   Gusts: NA
Location:  40.33°N, 90.61°W
Report Text: KMQB 260335Z AUTO 33006KT 10SM CLR 11/04 A3007 RMK AO2 T01060043
Loading
Personal Weather Stations






























Interactive Weather Map
Tropical Storm Tracking
New forecast layout! Learn more

10-Day Weather Forecast

Advertisements
Track Severe Weather on mobile